createdAt,value
2018-11-25T00:01:06.905Z,25.83
2018-11-25T00:03:38.906Z,21.63
2018-11-25T00:06:10.892Z,21.90
2018-11-25T00:08:42.964Z,26.43
2018-11-25T00:11:14.092Z,24.23
2018-11-25T00:13:45.251Z,22.10
2018-11-25T00:16:17.230Z,23.57
2018-11-25T00:18:48.379Z,22.77
2018-11-25T00:21:19.501Z,29.77
2018-11-25T00:23:50.626Z,26.37
2018-11-25T00:26:22.588Z,26.33
2018-11-25T00:28:53.752Z,21.87
2018-11-25T00:31:24.879Z,28.33
2018-11-25T00:33:56.029Z,24.53
2018-11-25T00:36:27.111Z,26.63
2018-11-25T00:38:58.241Z,26.53
2018-11-25T00:41:29.370Z,24.23
2018-11-25T00:44:00.584Z,24.70
2018-11-25T00:46:31.672Z,23.33
2018-11-25T00:49:02.834Z,23.90
2018-11-25T00:51:33.983Z,21.93
2018-11-25T00:54:05.170Z,21.53
2018-11-25T00:56:36.389Z,26.30
2018-11-25T00:59:08.598Z,21.40
2018-11-25T01:01:39.627Z,23.23
2018-11-25T01:04:10.755Z,23.10
2018-11-25T01:06:41.934Z,23.43
2018-11-25T01:09:13.063Z,20.83
2018-11-25T01:11:45.040Z,23.43
2018-11-25T01:14:16.285Z,22.97
2018-11-25T01:16:50.018Z,21.77
2018-11-25T01:19:21.123Z,24.03
2018-11-25T01:21:52.189Z,20.13
2018-11-25T01:24:23.300Z,23.20
2018-11-25T01:26:54.413Z,18.67
2018-11-25T01:29:25.632Z,24.23
2018-11-25T01:31:56.726Z,24.90
2018-11-25T01:34:27.891Z,20.87
2018-11-25T01:36:58.961Z,18.97
2018-11-25T01:39:30.128Z,25.07
2018-11-25T01:42:02.070Z,23.02
2018-11-25T01:44:33.296Z,23.27
2018-11-25T01:47:04.494Z,21.37
2018-11-25T01:49:35.611Z,18.87
2018-11-25T01:52:06.964Z,22.33
2018-11-25T01:54:38.084Z,19.10
2018-11-25T01:57:09.202Z,19.77
2018-11-25T01:59:40.335Z,17.93
2018-11-25T02:02:11.466Z,17.03
2018-11-25T02:04:42.601Z,19.70
2018-11-25T02:07:14.541Z,20.13
2018-11-25T02:09:45.668Z,20.57
2018-11-25T02:12:16.834Z,21.80
2018-11-25T02:20:25.252Z,18.80
2018-11-25T02:22:57.062Z,18.80
2018-11-25T02:25:28.188Z,21.93
2018-11-25T02:27:59.304Z,21.10
2018-11-25T02:30:30.415Z,25.23
2018-11-25T02:33:01.583Z,21.50
2018-11-25T02:35:32.665Z,23.50
2018-11-25T02:38:04.773Z,22.77
2018-11-25T02:40:35.888Z,24.20
2018-11-25T02:43:07.060Z,25.70
2018-11-25T02:45:38.162Z,24.47
2018-11-25T02:48:09.353Z,23.30
2018-11-25T02:50:40.438Z,21.80
2018-11-25T02:53:11.566Z,20.67
2018-11-25T02:55:42.658Z,25.17
2018-11-25T02:58:13.819Z,26.23
2018-11-25T03:00:45.023Z,24.37
2018-11-25T03:03:16.100Z,21.60
2018-11-25T03:05:47.261Z,21.57
2018-11-25T03:08:18.422Z,20.67
2018-11-25T03:10:49.530Z,27.80
2018-11-25T03:13:20.650Z,26.97
2018-11-25T03:15:51.725Z,27.93
2018-11-25T03:18:28.397Z,26.30
2018-11-25T03:20:59.497Z,28.17
2018-11-25T03:23:30.605Z,27.80
2018-11-25T03:26:01.704Z,31.37
2018-11-25T03:28:32.856Z,25.77
2018-11-25T03:31:03.979Z,27.50
2018-11-25T03:33:35.099Z,30.27
2018-11-25T03:36:06.276Z,28.97
2018-11-25T03:38:37.378Z,27.70
2018-11-25T03:41:08.636Z,27.03
2018-11-25T03:43:39.897Z,29.97
2018-11-25T03:46:11.030Z,28.30
2018-11-25T03:48:42.137Z,33.47
2018-11-25T03:51:13.318Z,29.03
2018-11-25T03:53:44.411Z,32.07
2018-11-25T03:56:15.534Z,29.70
2018-11-25T03:58:46.651Z,26.07
2018-11-25T04:01:17.760Z,23.33
2018-11-25T04:03:48.842Z,28.63
2018-11-25T04:06:19.984Z,27.70
2018-11-25T04:08:51.081Z,27.90
2018-11-25T04:11:22.188Z,27.40
2018-11-25T04:13:53.285Z,28.73
2018-11-25T04:16:24.441Z,29.00
2018-11-25T04:18:56.416Z,26.63
2018-11-25T04:21:27.536Z,27.30
2018-11-25T04:23:58.633Z,26.70
2018-11-25T04:26:29.746Z,31.33
2018-11-25T04:29:00.841Z,26.80
2018-11-25T04:31:31.960Z,25.70
2018-11-25T04:34:03.093Z,27.67
2018-11-25T04:36:34.203Z,26.60
2018-11-25T04:39:08.043Z,27.70
2018-11-25T04:41:39.163Z,25.00
2018-11-25T04:44:10.261Z,24.17
2018-11-25T04:46:41.360Z,26.83
2018-11-25T04:49:12.471Z,25.57
2018-11-25T04:51:43.590Z,22.87
2018-11-25T04:54:14.807Z,24.63
2018-11-25T04:56:45.894Z,22.93
2018-11-25T04:59:17.013Z,22.70
2018-11-25T05:01:48.153Z,29.20
2018-11-25T05:04:19.278Z,23.67
2018-11-25T05:06:50.389Z,23.83
2018-11-25T05:09:21.503Z,22.43
2018-11-25T05:11:52.623Z,24.37
2018-11-25T05:14:23.726Z,23.20
2018-11-25T05:16:54.991Z,22.87
2018-11-25T05:19:26.382Z,23.83
2018-11-25T05:21:57.504Z,22.40
2018-11-25T05:24:28.669Z,22.40
2018-11-25T05:26:59.830Z,26.53
2018-11-25T05:29:30.977Z,25.27
2018-11-25T05:32:02.118Z,20.93
2018-11-25T05:34:33.195Z,25.07
2018-11-25T05:37:04.339Z,24.80
2018-11-25T05:39:35.426Z,27.87
2018-11-25T05:42:06.570Z,24.27
2018-11-25T05:44:37.650Z,24.53
2018-11-25T05:47:08.767Z,26.73
2018-11-25T05:49:39.907Z,23.70
2018-11-25T05:52:11.030Z,27.83
2018-11-25T05:54:42.153Z,27.13
2018-11-25T05:57:13.267Z,24.13
2018-11-25T05:59:44.337Z,24.53
2018-11-25T06:02:15.443Z,23.53
2018-11-25T06:04:46.532Z,25.10
2018-11-25T06:07:17.645Z,25.40
2018-11-25T06:09:48.730Z,27.63
2018-11-25T06:12:19.833Z,25.67
2018-11-25T06:14:50.955Z,23.90
2018-11-25T06:17:23.341Z,25.47
2018-11-25T06:19:54.601Z,25.80
2018-11-25T06:22:25.734Z,24.87
2018-11-25T06:24:56.851Z,24.97
2018-11-25T06:30:06.174Z,30.53
2018-11-25T06:32:37.350Z,27.57
2018-11-25T06:35:09.833Z,31.90
2018-11-25T06:37:40.972Z,26.07
2018-11-25T06:40:18.857Z,30.03
2018-11-25T06:42:50.030Z,28.47
2018-11-25T06:45:31.023Z,29.73
2018-11-25T06:48:02.186Z,29.60
2018-11-25T06:50:33.276Z,33.50
2018-11-25T06:53:04.486Z,28.80
2018-11-25T06:55:35.591Z,26.23
2018-11-25T06:58:06.713Z,30.20
2018-11-25T07:00:37.827Z,30.77
2018-11-25T07:03:09.351Z,30.50
2018-11-25T07:05:40.506Z,30.63
2018-11-25T07:08:11.696Z,32.03
2018-11-25T07:10:42.764Z,32.20
2018-11-25T07:13:13.929Z,28.17
2018-11-25T07:15:45.019Z,31.60
2018-11-25T07:18:16.156Z,31.03
2018-11-25T07:20:47.230Z,31.90
2018-11-25T07:23:18.405Z,28.57
2018-11-25T07:25:49.504Z,28.53
2018-11-25T07:28:20.666Z,30.63
2018-11-25T07:30:51.837Z,27.83
2018-11-25T07:33:23.013Z,28.17
2018-11-25T07:35:54.160Z,30.40
2018-11-25T07:38:25.395Z,32.50
2018-11-25T07:40:56.525Z,31.80
2018-11-25T07:43:27.760Z,26.00
2018-11-25T07:45:58.940Z,30.43
2018-11-25T07:48:30.082Z,28.47
2018-11-25T07:51:01.219Z,31.00
2018-11-25T07:53:32.345Z,34.27
2018-11-25T07:56:03.438Z,31.53
2018-11-25T07:58:34.660Z,31.13
2018-11-25T08:01:05.784Z,35.27
2018-11-25T08:03:36.936Z,32.73
2018-11-25T08:06:08.176Z,30.73
2018-11-25T08:08:39.445Z,30.27
2018-11-25T08:11:10.603Z,32.23
2018-11-25T08:13:43.058Z,32.77
2018-11-25T08:16:14.313Z,33.50
2018-11-25T08:18:45.754Z,32.43
2018-11-25T08:21:16.879Z,29.47
2018-11-25T08:23:49.013Z,35.57
2018-11-25T08:26:20.193Z,31.40
2018-11-25T08:28:52.187Z,28.30
2018-11-25T08:31:23.290Z,28.30
2018-11-25T08:33:54.477Z,28.40
2018-11-25T08:36:25.601Z,28.93
2018-11-25T08:38:56.936Z,23.87
2018-11-25T08:41:28.100Z,24.90
2018-11-25T08:43:59.321Z,29.20
2018-11-25T08:46:30.426Z,28.90
2018-11-25T08:49:01.630Z,28.77
2018-11-25T08:51:32.769Z,33.00
2018-11-25T08:54:04.003Z,34.73
2018-11-25T08:56:35.105Z,33.17
2018-11-25T08:59:06.388Z,28.50
2018-11-25T09:01:37.478Z,34.33
2018-11-25T09:04:08.629Z,27.73
2018-11-25T09:06:39.769Z,28.60
2018-11-25T09:09:10.965Z,29.37
2018-11-25T09:11:42.112Z,32.90
2018-11-25T09:14:13.381Z,32.33
2018-11-25T09:16:44.470Z,32.63
2018-11-25T09:19:15.648Z,27.43
2018-11-25T09:21:46.774Z,25.83
2018-11-25T09:24:17.990Z,26.73
2018-11-25T09:26:49.102Z,27.43
2018-11-25T09:29:20.239Z,28.27
2018-11-25T09:31:51.355Z,32.73
2018-11-25T09:34:22.616Z,30.30
2018-11-25T09:36:53.774Z,30.83
2018-11-25T09:39:24.911Z,31.13
2018-11-25T09:41:56.005Z,33.93
2018-11-25T09:44:27.170Z,31.40
2018-11-25T09:46:58.307Z,33.00
2018-11-25T09:49:29.491Z,30.47
2018-11-25T09:52:00.597Z,33.87
2018-11-25T09:54:31.812Z,33.17
2018-11-25T09:57:02.935Z,32.07
2018-11-25T09:59:34.122Z,31.77
2018-11-25T10:02:05.254Z,30.37
2018-11-25T10:04:36.387Z,30.17
2018-11-25T10:07:07.569Z,27.40
2018-11-25T10:09:38.762Z,28.27
2018-11-25T10:12:09.884Z,29.50
2018-11-25T10:14:41.034Z,30.67
2018-11-25T10:17:12.469Z,32.58
2018-11-25T10:19:43.680Z,25.70
2018-11-25T10:22:15.743Z,28.27
2018-11-25T10:27:29.729Z,28.07
2018-11-25T10:30:00.959Z,26.47
2018-11-25T10:32:32.126Z,32.33
2018-11-25T10:35:03.303Z,27.97
2018-11-25T10:37:34.759Z,33.13
2018-11-25T10:40:08.811Z,32.00
2018-11-25T10:42:39.965Z,29.70
2018-11-25T10:45:12.590Z,33.27
2018-11-25T10:47:43.697Z,28.20
2018-11-25T10:50:18.887Z,33.17
2018-11-25T10:52:54.753Z,31.80
2018-11-25T10:55:25.876Z,31.47
2018-11-25T10:57:57.032Z,35.33
2018-11-25T11:00:49.403Z,33.93
2018-11-25T11:03:37.988Z,35.40
2018-11-25T11:06:26.337Z,34.47
2018-11-25T11:09:09.760Z,27.90
2018-11-25T11:11:40.956Z,30.63
2018-11-25T11:14:12.105Z,29.40
2018-11-25T11:16:43.268Z,27.97
2018-11-25T11:19:14.438Z,37.63
2018-11-25T11:21:45.627Z,31.30
2018-11-25T11:24:16.850Z,30.80
2018-11-25T11:27:01.994Z,35.83
2018-11-25T11:29:33.290Z,32.37
2018-11-25T11:32:04.500Z,34.37
2018-11-25T11:34:36.568Z,38.00
2018-11-25T11:37:07.848Z,31.43
2018-11-25T11:39:39.056Z,36.67
2018-11-25T11:42:10.223Z,41.70
2018-11-25T11:44:41.428Z,36.87
2018-11-25T11:47:12.634Z,35.40
2018-11-25T11:49:43.895Z,32.33
2018-11-25T11:52:15.076Z,33.23
2018-11-25T11:54:47.991Z,38.93
2018-11-25T11:57:30.878Z,31.70
2018-11-25T12:00:16.408Z,35.70
2018-11-25T12:02:47.624Z,36.03
2018-11-25T12:05:18.797Z,29.10
2018-11-25T12:07:50.118Z,34.13
2018-11-25T12:10:21.391Z,31.80
2018-11-25T12:12:52.602Z,37.93
2018-11-25T12:18:12.403Z,31.40
2018-11-25T12:20:43.630Z,32.33
2018-11-25T12:23:14.766Z,33.07
2018-11-25T12:25:46.021Z,33.73
2018-11-25T12:28:17.204Z,34.20
2018-11-25T12:30:49.140Z,29.90
2018-11-25T12:33:20.345Z,28.80
2018-11-25T12:35:52.649Z,30.37
2018-11-25T12:38:32.386Z,26.80
2018-11-25T12:41:09.909Z,27.97
2018-11-25T12:43:47.078Z,30.93
2018-11-25T12:46:18.293Z,28.63
2018-11-25T12:48:53.588Z,27.47
2018-11-25T12:51:24.770Z,29.37
2018-11-25T12:53:58.289Z,27.90
2018-11-25T12:56:36.012Z,28.03
2018-11-25T12:59:07.233Z,32.80
2018-11-25T13:01:38.510Z,32.17
2018-11-25T13:04:09.629Z,33.07
2018-11-25T13:06:40.838Z,30.20
2018-11-25T13:09:12.130Z,30.53
2018-11-25T13:11:44.448Z,30.37
2018-11-25T13:14:15.346Z,29.73
2018-11-25T13:16:46.535Z,29.40
2018-11-25T13:19:19.813Z,27.50
2018-11-25T13:21:51.311Z,29.03
2018-11-25T13:24:22.523Z,26.60
2018-11-25T13:26:53.826Z,30.37
2018-11-25T13:29:24.977Z,32.33
2018-11-25T13:31:56.323Z,29.20
2018-11-25T13:34:27.454Z,32.37
2018-11-25T13:37:10.652Z,32.40
2018-11-25T13:39:47.031Z,32.23
2018-11-25T13:42:27.707Z,36.77
2018-11-25T13:44:56.782Z,34.53
2018-11-25T13:47:27.939Z,36.90
2018-11-25T13:49:59.087Z,36.57
2018-11-25T13:55:23.287Z,34.90
2018-11-25T14:00:54.115Z,45.30
2018-11-25T14:03:39.643Z,37.70
2018-11-25T14:06:13.720Z,32.90
2018-11-25T14:08:46.457Z,32.83
2018-11-25T14:14:02.694Z,38.10
2018-11-25T14:16:35.015Z,35.10
2018-11-25T14:19:10.986Z,32.87
2018-11-25T14:21:46.381Z,31.33
2018-11-25T14:24:25.523Z,38.17
2018-11-25T14:27:03.809Z,33.60
2018-11-25T14:29:35.071Z,34.47
2018-11-25T14:32:06.500Z,36.90
2018-11-25T14:34:37.638Z,36.60
2018-11-25T14:37:08.899Z,37.87
2018-11-25T14:39:40.093Z,41.00
2018-11-25T14:42:11.338Z,31.43
2018-11-25T14:44:42.474Z,41.47
2018-11-25T14:47:13.706Z,40.83
2018-11-25T14:49:44.871Z,36.77
2018-11-25T14:52:16.079Z,36.17
2018-11-25T14:54:51.318Z,37.70
2018-11-25T14:57:19.292Z,33.17
2018-11-25T14:59:50.501Z,32.93
2018-11-25T15:02:21.692Z,30.43
2018-11-25T15:04:58.179Z,33.67
2018-11-25T15:07:35.134Z,31.83
2018-11-25T15:10:06.758Z,33.30
2018-11-25T15:12:37.960Z,28.63
2018-11-25T15:15:15.319Z,31.70
2018-11-25T15:17:52.352Z,38.00
2018-11-25T15:20:23.492Z,34.90
2018-11-25T15:22:59.217Z,34.67
2018-11-25T15:25:32.368Z,39.37
2018-11-25T15:28:03.639Z,30.23
2018-11-25T15:30:34.864Z,35.43
2018-11-25T15:33:06.081Z,34.77
2018-11-25T15:35:37.234Z,32.13
2018-11-25T15:38:08.765Z,30.37
2018-11-25T15:40:40.277Z,38.27
2018-11-25T15:43:12.299Z,29.03
2018-11-25T15:45:43.487Z,32.30
2018-11-25T15:48:19.428Z,29.50
2018-11-25T15:50:50.706Z,32.23
2018-11-25T15:53:21.900Z,29.53
2018-11-25T15:55:54.585Z,28.13
2018-11-25T15:58:25.748Z,31.40
2018-11-25T16:00:57.100Z,32.33
2018-11-25T16:03:29.352Z,30.40
2018-11-25T16:06:13.576Z,33.83
2018-11-25T16:08:44.891Z,27.27
2018-11-25T16:11:16.102Z,22.43
2018-11-25T16:13:47.478Z,23.63
2018-11-25T16:16:22.606Z,28.47
2018-11-25T16:18:53.933Z,26.27
2018-11-25T16:32:49.157Z,25.00
2018-11-25T16:35:20.532Z,22.40
2018-11-25T16:46:20.137Z,18.87
2018-11-25T16:48:51.549Z,23.40
2018-11-25T16:54:12.796Z,19.87
2018-11-25T16:56:44.131Z,21.00
2018-11-25T16:59:15.404Z,21.53
2018-11-25T17:01:46.667Z,23.47
2018-11-25T17:07:12.692Z,29.60
2018-11-25T17:09:44.017Z,27.63
2018-11-25T17:15:14.300Z,24.97
2018-11-25T17:17:45.524Z,32.23
2018-11-25T17:20:16.848Z,28.90
2018-11-25T17:22:48.081Z,26.13
2018-11-25T17:25:19.272Z,25.87
2018-11-25T17:29:23.998Z,24.23
2018-11-25T17:31:55.328Z,30.47
2018-11-25T17:40:56.443Z,25.60
2018-11-25T17:43:27.885Z,26.80
2018-11-25T17:48:48.318Z,25.47
2018-11-25T17:51:19.823Z,24.23
2018-11-25T17:59:29.535Z,24.93
2018-11-25T18:02:01.824Z,27.23
2018-11-25T18:04:34.163Z,22.97
2018-11-25T18:07:05.709Z,22.40
2018-11-25T18:09:36.945Z,27.67
2018-11-25T18:12:08.290Z,23.80
2018-11-25T18:14:39.983Z,25.87
2018-11-25T18:29:15.885Z,25.27
2018-11-25T18:31:47.325Z,33.40
2018-11-25T18:34:18.845Z,31.03
2018-11-25T18:36:50.166Z,35.53
2018-11-25T18:39:27.562Z,32.70
2018-11-25T18:41:59.166Z,28.37
2018-11-25T18:44:30.538Z,37.70
2018-11-25T18:47:08.646Z,32.57
2018-11-25T19:12:13.439Z,33.57
2018-11-25T19:14:49.281Z,34.37
2018-11-25T19:17:21.715Z,26.83
2018-11-25T19:23:32.896Z,33.60
2018-11-25T19:26:06.552Z,30.73
2018-11-25T19:31:27.945Z,31.23
2018-11-25T19:33:59.390Z,28.57
2018-11-25T19:36:30.930Z,31.37
2018-11-25T19:42:02.397Z,26.83
2018-11-25T19:44:33.820Z,22.47
2018-11-25T19:47:05.128Z,27.00
2018-11-25T19:49:37.031Z,25.63
2018-11-25T19:52:08.306Z,26.23
2018-11-25T19:54:39.656Z,26.43
2018-11-25T19:57:11.001Z,25.20
2018-11-25T19:59:42.703Z,24.03
2018-11-25T20:02:13.916Z,26.07
2018-11-25T20:04:46.038Z,26.67
2018-11-25T20:07:21.821Z,23.93
2018-11-25T20:09:57.287Z,26.30
2018-11-25T20:12:41.194Z,24.97
2018-11-25T20:15:19.575Z,23.63
2018-11-25T20:17:54.384Z,23.30
2018-11-25T20:20:29.366Z,26.90
2018-11-25T20:23:00.701Z,25.47
2018-11-25T20:25:35.764Z,25.73
2018-11-25T20:28:07.251Z,26.70
2018-11-25T20:30:38.592Z,22.73
2018-11-25T20:33:27.166Z,27.13
2018-11-25T20:35:58.562Z,27.23
2018-11-25T20:38:47.247Z,27.17
2018-11-25T20:41:18.491Z,23.87
2018-11-25T20:43:50.321Z,23.32
2018-11-25T20:46:38.762Z,24.97
2018-11-25T20:49:10.191Z,24.93
2018-11-25T20:51:58.229Z,24.27
2018-11-25T20:54:29.631Z,26.57
2018-11-25T20:57:00.927Z,28.83
2018-11-25T20:59:32.287Z,27.97
2018-11-25T21:02:03.674Z,24.63
2018-11-25T21:04:35.013Z,27.77
2018-11-25T21:07:06.413Z,26.53
2018-11-25T21:09:37.819Z,29.03
2018-11-25T21:12:09.161Z,30.40
2018-11-25T21:14:40.426Z,30.23
2018-11-25T21:17:13.238Z,29.50
2018-11-25T21:19:43.832Z,28.53
2018-11-25T21:22:15.022Z,33.33
2018-11-25T21:24:46.306Z,30.33
2018-11-25T21:27:17.558Z,29.13
2018-11-25T21:29:48.884Z,36.27
2018-11-25T21:32:20.238Z,31.60
2018-11-25T21:34:51.451Z,33.50
2018-11-25T21:37:22.742Z,31.37
2018-11-25T21:39:53.961Z,35.93
2018-11-25T21:42:25.339Z,33.60
2018-11-25T21:44:56.580Z,32.23
2018-11-25T21:47:27.708Z,35.00
2018-11-25T21:49:58.835Z,32.20
2018-11-25T21:52:29.994Z,27.77
2018-11-25T21:55:01.328Z,33.33
2018-11-25T21:57:32.564Z,35.37
2018-11-25T22:00:03.751Z,33.47
2018-11-25T22:02:34.870Z,34.10
2018-11-25T22:05:06.338Z,34.43
2018-11-25T22:07:37.555Z,36.47
2018-11-25T22:10:16.087Z,37.90
2018-11-25T22:12:47.523Z,28.43
2018-11-25T22:15:22.946Z,35.30
2018-11-25T22:17:54.114Z,33.47
2018-11-25T22:20:25.261Z,38.87
2018-11-25T22:22:56.402Z,41.07
2018-11-25T22:25:27.556Z,30.93
2018-11-25T22:27:58.746Z,34.07
2018-11-25T22:30:30.229Z,32.00
2018-11-25T22:33:01.399Z,33.93
2018-11-25T22:35:32.628Z,31.53
2018-11-25T22:38:03.784Z,35.50
2018-11-25T22:40:34.961Z,31.43
2018-11-25T22:43:06.101Z,34.40
2018-11-25T22:45:37.309Z,31.90
2018-11-25T22:48:08.494Z,38.67
2018-11-25T22:50:39.697Z,35.07
2018-11-25T22:53:10.823Z,34.27
2018-11-25T22:55:42.008Z,38.70
2018-11-25T22:58:13.185Z,31.33
2018-11-25T23:00:45.339Z,32.47
2018-11-25T23:03:17.402Z,32.63
2018-11-25T23:06:25.009Z,31.70
2018-11-25T23:08:56.156Z,33.80
2018-11-25T23:11:27.326Z,34.37
2018-11-25T23:13:58.499Z,33.60
2018-11-25T23:16:29.649Z,31.67
2018-11-25T23:19:00.744Z,31.90
2018-11-25T23:21:31.931Z,37.97
2018-11-25T23:24:03.674Z,35.80
2018-11-25T23:26:34.878Z,34.93
2018-11-25T23:29:06.037Z,36.20
2018-11-25T23:31:37.140Z,41.27
2018-11-25T23:34:09.226Z,36.83
2018-11-25T23:36:40.353Z,37.57
2018-11-25T23:39:11.844Z,35.17
2018-11-25T23:41:43.093Z,37.17
2018-11-25T23:44:14.287Z,39.93
2018-11-25T23:46:45.472Z,39.13
2018-11-25T23:49:16.579Z,34.43
2018-11-25T23:51:47.811Z,35.70
2018-11-25T23:54:18.904Z,38.43
2018-11-25T23:56:50.032Z,36.53
2018-11-25T23:59:21.142Z,41.70
